createdAt,value
2019-04-14T00:00:34.259Z,14.40
2019-04-14T00:03:39.029Z,14.40
2019-04-14T00:06:26.647Z,14.40
2019-04-14T00:09:14.109Z,14.40
2019-04-14T00:11:59.294Z,14.40
2019-04-14T00:14:44.696Z,14.40
2019-04-14T00:17:30.604Z,14.40
2019-04-14T00:20:18.606Z,14.40
2019-04-14T00:23:04.374Z,14.40
2019-04-14T00:25:50.116Z,14.30
2019-04-14T00:28:35.766Z,14.40
2019-04-14T00:31:21.668Z,14.40
2019-04-14T00:34:18.101Z,14.40
2019-04-14T00:37:07.849Z,14.40
2019-04-14T00:39:57.735Z,14.30
2019-04-14T00:42:47.595Z,14.30
2019-04-14T00:45:44.395Z,14.30
2019-04-14T00:48:24.297Z,14.30
2019-04-14T00:51:11.281Z,14.30
2019-04-14T00:53:56.299Z,14.30
2019-04-14T00:56:41.645Z,14.30
2019-04-14T00:59:27.567Z,14.40
2019-04-14T01:02:12.438Z,14.30
2019-04-14T01:04:57.667Z,14.30
2019-04-14T01:07:43.417Z,14.30
2019-04-14T01:10:29.969Z,14.20
2019-04-14T01:13:15.767Z,14.20
2019-04-14T01:16:08.726Z,14.20
2019-04-14T01:18:49.320Z,14.20
2019-04-14T01:21:34.939Z,14.10
2019-04-14T01:24:20.679Z,14.10
2019-04-14T01:27:06.068Z,14.10
2019-04-14T01:29:51.607Z,14.10
2019-04-14T01:32:37.253Z,14.10
2019-04-14T01:35:22.755Z,14.10
2019-04-14T01:38:08.039Z,14.10
2019-04-14T01:40:53.244Z,14.10
2019-04-14T01:43:38.854Z,14.00
2019-04-14T01:46:28.398Z,14.00
2019-04-14T01:49:12.091Z,14.00
2019-04-14T01:52:01.922Z,14.00
2019-04-14T01:54:58.338Z,14.00
2019-04-14T01:57:48.332Z,14.00
2019-04-14T02:00:38.303Z,14.00
2019-04-14T02:03:23.878Z,14.00
2019-04-14T02:06:09.342Z,14.00
2019-04-14T02:08:55.277Z,14.00
2019-04-14T02:11:42.280Z,13.90
2019-04-14T02:14:27.764Z,13.90
2019-04-14T02:17:13.262Z,13.90
2019-04-14T02:19:59.006Z,13.90
2019-04-14T02:22:44.150Z,13.90
2019-04-14T02:25:29.625Z,13.90
2019-04-14T02:28:15.554Z,13.90
2019-04-14T02:31:13.096Z,13.90
2019-04-14T02:34:15.710Z,13.90
2019-04-14T02:37:06.619Z,13.90
2019-04-14T02:40:01.258Z,13.90
2019-04-14T02:42:39.855Z,13.80
2019-04-14T02:45:32.229Z,13.80
2019-04-14T02:48:33.415Z,13.80
2019-04-14T02:51:06.126Z,13.80
2019-04-14T02:53:51.660Z,13.80
2019-04-14T02:59:22.953Z,13.70
2019-04-14T03:04:56.915Z,13.70
2019-04-14T03:07:46.878Z,13.70
2019-04-14T03:10:32.015Z,13.70
2019-04-14T03:13:25.729Z,13.70
2019-04-14T03:16:02.389Z,13.70
2019-04-14T03:19:06.529Z,13.70
2019-04-14T03:22:12.573Z,13.70
2019-04-14T03:24:44.353Z,13.70
2019-04-14T03:34:02.714Z,13.60
2019-04-14T03:36:43.694Z,13.60
2019-04-14T03:39:00.203Z,13.50
2019-04-14T03:41:37.157Z,13.60
2019-04-14T03:47:20.833Z,13.60
2019-04-14T03:50:09.654Z,13.50
2019-04-14T03:52:55.741Z,13.50
2019-04-14T03:55:52.391Z,13.50
2019-04-14T03:58:33.579Z,13.50
2019-04-14T04:01:19.343Z,13.50
2019-04-14T04:04:07.483Z,13.50
2019-04-14T04:06:53.053Z,13.50
2019-04-14T04:09:41.112Z,13.50
2019-04-14T04:12:27.070Z,13.50
2019-04-14T04:15:12.762Z,13.40
2019-04-14T04:18:09.152Z,13.40
2019-04-14T04:20:56.736Z,13.40
2019-04-14T04:23:44.684Z,13.40
2019-04-14T04:26:40.877Z,13.40
2019-04-14T04:29:28.814Z,13.40
2019-04-14T04:32:16.450Z,13.40
2019-04-14T04:35:04.481Z,13.40
2019-04-14T04:37:54.158Z,13.40
2019-04-14T04:40:39.752Z,13.40
2019-04-14T04:43:25.531Z,13.40
2019-04-14T04:46:11.330Z,13.30
2019-04-14T04:49:06.429Z,13.40
2019-04-14T04:51:44.333Z,13.40
2019-04-14T04:54:30.117Z,13.30
2019-04-14T04:57:15.540Z,13.30
2019-04-14T05:00:00.663Z,13.30
2019-04-14T05:02:48.515Z,13.30
2019-04-14T05:06:09.766Z,13.30
2019-04-14T05:09:06.189Z,13.30
2019-04-14T05:12:11.083Z,13.30
2019-04-14T05:15:00.978Z,13.30
2019-04-14T05:17:49.552Z,13.30
2019-04-14T05:20:35.623Z,13.30
2019-04-14T05:23:21.338Z,13.30
2019-04-14T05:26:07.080Z,13.30
2019-04-14T05:28:52.766Z,13.30
2019-04-14T05:31:38.274Z,13.30
2019-04-14T05:34:23.984Z,13.30
2019-04-14T05:37:09.259Z,13.30
2019-04-14T05:39:54.852Z,13.30
2019-04-14T05:42:40.781Z,13.30
2019-04-14T05:45:26.254Z,13.40
2019-04-14T05:48:11.800Z,13.40
2019-04-14T05:50:57.748Z,13.50
2019-04-14T05:53:43.773Z,13.50
2019-04-14T05:56:29.613Z,13.40
2019-04-14T05:59:15.644Z,13.50
2019-04-14T06:02:00.897Z,13.50
2019-04-14T06:04:46.344Z,13.50
2019-04-14T06:07:31.105Z,13.50
2019-04-14T06:10:16.608Z,13.60
2019-04-14T06:13:01.658Z,13.60
2019-04-14T06:15:46.563Z,13.60
2019-04-14T06:18:33.490Z,13.60
2019-04-14T06:21:18.350Z,13.70
2019-04-14T06:24:04.618Z,13.70
2019-04-14T06:26:49.255Z,13.60
2019-04-14T06:29:34.176Z,13.70
2019-04-14T06:32:20.863Z,13.70
2019-04-14T06:35:16.757Z,13.70
2019-04-14T06:38:05.866Z,13.80
2019-04-14T06:40:52.658Z,14.00
2019-04-14T06:43:48.430Z,14.10
2019-04-14T06:46:27.089Z,14.00
2019-04-14T06:49:11.815Z,14.10
2019-04-14T06:51:57.031Z,14.10
2019-04-14T06:54:41.735Z,14.20
2019-04-14T06:57:26.901Z,14.30
2019-04-14T07:00:12.311Z,14.40
2019-04-14T07:02:57.903Z,14.40
2019-04-14T07:05:43.573Z,14.40
2019-04-14T07:08:29.929Z,14.30
2019-04-14T07:11:15.009Z,14.40
2019-04-14T07:14:00.442Z,14.30
2019-04-14T07:16:45.487Z,14.40
2019-04-14T07:19:30.616Z,14.40
2019-04-14T07:22:17.731Z,14.20
2019-04-14T07:25:03.723Z,14.20
2019-04-14T07:27:48.922Z,14.30
2019-04-14T07:30:52.422Z,14.30
2019-04-14T07:33:56.199Z,14.40
2019-04-14T07:37:01.742Z,14.40
2019-04-14T07:40:01.048Z,14.50
2019-04-14T07:42:51.059Z,14.40
2019-04-14T07:45:38.304Z,14.50
2019-04-14T07:48:28.606Z,14.50
2019-04-14T07:51:24.772Z,14.70
2019-04-14T07:54:18.047Z,14.90
2019-04-14T07:57:05.597Z,14.90
2019-04-14T07:59:56.823Z,14.80
2019-04-14T08:02:46.498Z,14.70
2019-04-14T08:05:36.523Z,14.60
2019-04-14T08:08:21.466Z,14.50
2019-04-14T08:11:06.547Z,14.50
2019-04-14T08:13:51.586Z,14.60
2019-04-14T08:16:36.810Z,14.50
2019-04-14T08:19:22.416Z,14.50
2019-04-14T08:22:07.408Z,14.60
2019-04-14T08:24:52.650Z,14.60
2019-04-14T08:27:38.025Z,14.50
2019-04-14T08:30:23.283Z,14.50
2019-04-14T08:33:08.409Z,14.60
2019-04-14T08:35:53.690Z,14.60
2019-04-14T08:38:38.862Z,14.50
2019-04-14T08:41:24.568Z,14.30
2019-04-14T08:44:20.800Z,14.30
2019-04-14T08:47:07.851Z,14.50
2019-04-14T08:49:56.168Z,14.50
2019-04-14T08:52:52.258Z,14.50
2019-04-14T08:55:48.520Z,14.40
2019-04-14T08:58:35.586Z,14.20
2019-04-14T09:01:25.633Z,14.20
2019-04-14T09:04:18.753Z,14.30
2019-04-14T09:07:21.006Z,14.60
2019-04-14T09:10:10.878Z,14.70
2019-04-14T09:12:58.655Z,14.70
2019-04-14T09:15:43.740Z,14.70
2019-04-14T09:18:30.437Z,14.70
2019-04-14T09:21:15.165Z,14.70
2019-04-14T09:24:00.259Z,14.50
2019-04-14T09:26:45.059Z,14.50
2019-04-14T09:29:30.273Z,14.40
2019-04-14T09:32:15.902Z,14.40
2019-04-14T09:35:00.806Z,14.50
2019-04-14T09:37:45.925Z,14.60
2019-04-14T09:40:31.447Z,14.50
2019-04-14T09:43:16.581Z,14.60
2019-04-14T09:46:01.963Z,14.70
2019-04-14T09:48:47.257Z,14.80
2019-04-14T09:51:34.747Z,14.90
2019-04-14T09:54:19.951Z,14.90
2019-04-14T09:57:04.781Z,14.90
2019-04-14T09:59:49.977Z,15.00
2019-04-14T10:02:35.050Z,15.10
2019-04-14T10:05:21.226Z,15.40
2019-04-14T10:08:06.504Z,15.60
2019-04-14T10:10:53.681Z,15.70
2019-04-14T10:13:39.075Z,15.70
2019-04-14T10:16:24.180Z,15.70
2019-04-14T10:19:09.244Z,15.70
2019-04-14T10:21:53.982Z,15.60
2019-04-14T10:24:38.904Z,15.60
2019-04-14T10:27:23.602Z,15.80
2019-04-14T10:30:08.827Z,15.70
2019-04-14T10:32:53.951Z,15.70
2019-04-14T10:35:39.035Z,15.70
2019-04-14T10:38:23.876Z,15.80
2019-04-14T10:41:09.340Z,15.80
2019-04-14T10:43:54.389Z,15.80
2019-04-14T10:46:39.971Z,15.80
2019-04-14T10:49:25.411Z,15.80
2019-04-14T10:52:10.773Z,15.80
2019-04-14T10:54:55.949Z,15.70
2019-04-14T10:57:41.377Z,15.70
2019-04-14T11:00:26.597Z,15.70
2019-04-14T11:03:11.754Z,15.70
2019-04-14T11:05:58.448Z,15.80
2019-04-14T11:08:43.342Z,15.70
2019-04-14T11:11:28.766Z,15.60
2019-04-14T11:14:13.494Z,15.80
2019-04-14T11:16:59.215Z,15.90
2019-04-14T11:19:44.226Z,15.90
2019-04-14T11:22:29.016Z,16.00
2019-04-14T11:25:14.320Z,16.10
2019-04-14T11:27:59.535Z,16.10
2019-04-14T11:30:44.393Z,16.00
2019-04-14T11:33:34.114Z,16.00
2019-04-14T11:36:27.288Z,15.90
2019-04-14T11:39:14.512Z,15.90
2019-04-14T11:41:59.599Z,15.90
2019-04-14T11:44:45.990Z,15.90
2019-04-14T11:47:31.370Z,15.90
2019-04-14T11:50:16.865Z,15.90
2019-04-14T11:53:02.311Z,15.80
2019-04-14T11:55:47.863Z,15.70
2019-04-14T11:58:33.861Z,15.60
2019-04-14T12:01:31.671Z,15.60
2019-04-14T12:04:27.857Z,15.70
2019-04-14T12:07:17.714Z,15.70
2019-04-14T12:10:06.388Z,15.70
2019-04-14T12:12:51.593Z,15.80
2019-04-14T12:15:36.884Z,15.80
2019-04-14T12:18:22.230Z,15.80
2019-04-14T12:21:07.369Z,15.80
2019-04-14T12:23:52.709Z,15.80
2019-04-14T12:26:37.526Z,15.80
2019-04-14T12:29:23.643Z,15.80
2019-04-14T12:32:08.964Z,15.80
2019-04-14T12:34:55.743Z,15.80
2019-04-14T12:37:42.857Z,15.80
2019-04-14T12:40:27.668Z,15.80
2019-04-14T12:43:14.375Z,15.70
2019-04-14T12:46:16.317Z,15.70
2019-04-14T12:49:03.410Z,15.80
2019-04-14T12:51:53.399Z,15.80
2019-04-14T12:54:38.919Z,15.80
2019-04-14T12:57:35.694Z,15.70
2019-04-14T13:00:22.863Z,15.70
2019-04-14T13:03:07.757Z,15.70
2019-04-14T13:05:53.184Z,15.70
2019-04-14T13:08:38.520Z,15.70
2019-04-14T13:11:23.716Z,15.70
2019-04-14T13:14:08.777Z,15.70
2019-04-14T13:16:54.778Z,15.70
2019-04-14T13:19:40.043Z,15.70
2019-04-14T13:22:33.725Z,15.70
2019-04-14T13:25:11.563Z,15.70
2019-04-14T13:27:57.081Z,15.80
2019-04-14T13:30:42.971Z,15.70
2019-04-14T13:33:28.199Z,15.70
2019-04-14T13:36:13.480Z,15.70
2019-04-14T13:38:58.503Z,15.70
2019-04-14T13:41:43.665Z,15.80
2019-04-14T13:44:28.346Z,15.80
2019-04-14T13:47:13.965Z,15.80
2019-04-14T13:49:59.189Z,15.70
2019-04-14T13:52:47.018Z,15.70
2019-04-14T13:55:32.795Z,15.80
2019-04-14T13:58:18.266Z,15.80
2019-04-14T14:01:03.465Z,15.70
2019-04-14T14:03:50.380Z,15.60
2019-04-14T14:06:35.440Z,15.60
2019-04-14T14:09:20.462Z,15.70
2019-04-14T14:12:07.934Z,15.70
2019-04-14T14:15:04.492Z,15.50
2019-04-14T14:17:51.843Z,15.50
2019-04-14T14:20:39.080Z,15.40
2019-04-14T14:23:27.830Z,15.50
2019-04-14T14:26:14.990Z,15.60
2019-04-14T14:29:00.620Z,15.60
2019-04-14T14:31:47.019Z,15.60
2019-04-14T14:34:32.064Z,15.50
2019-04-14T14:37:17.393Z,15.50
2019-04-14T14:40:04.136Z,15.60
2019-04-14T14:42:51.249Z,15.60
2019-04-14T14:45:51.376Z,15.70
2019-04-14T14:48:41.396Z,15.70
2019-04-14T14:51:45.183Z,15.50
2019-04-14T14:54:30.429Z,15.50
2019-04-14T14:57:17.384Z,15.50
2019-04-14T15:00:08.576Z,15.50
2019-04-14T15:02:54.208Z,15.50
2019-04-14T15:05:39.357Z,15.60
2019-04-14T15:08:24.610Z,15.60
2019-04-14T15:11:09.842Z,15.60
2019-04-14T15:13:56.181Z,15.70
2019-04-14T15:16:41.357Z,15.70
2019-04-14T15:19:26.351Z,15.70
2019-04-14T15:22:11.338Z,15.60
2019-04-14T15:24:56.304Z,15.70
2019-04-14T15:27:41.242Z,15.60
2019-04-14T15:30:26.281Z,15.70
2019-04-14T15:33:11.477Z,15.70
2019-04-14T15:35:56.578Z,15.80
2019-04-14T15:38:42.096Z,15.80
2019-04-14T15:41:26.813Z,15.80
2019-04-14T15:44:11.754Z,15.80
2019-04-14T15:46:56.847Z,15.70
2019-04-14T15:49:42.442Z,15.60
2019-04-14T15:52:27.593Z,15.70
2019-04-14T15:55:16.569Z,15.80
2019-04-14T15:58:09.785Z,15.70
2019-04-14T16:01:15.069Z,15.70
2019-04-14T16:04:13.637Z,15.70
2019-04-14T16:07:06.551Z,15.70
2019-04-14T16:10:02.761Z,15.70
2019-04-14T16:13:07.101Z,15.70
2019-04-14T16:16:09.258Z,15.70
2019-04-14T16:19:05.559Z,15.70
2019-04-14T16:21:50.522Z,15.70
2019-04-14T16:24:35.806Z,15.70
2019-04-14T16:27:26.083Z,15.80
2019-04-14T16:30:19.281Z,15.80
2019-04-14T16:33:12.572Z,15.70
2019-04-14T16:35:58.668Z,15.80
2019-04-14T16:38:44.392Z,15.80
2019-04-14T16:41:30.492Z,15.80
2019-04-14T16:44:15.542Z,15.70
2019-04-14T16:47:00.869Z,15.70
2019-04-14T16:49:46.237Z,15.70
2019-04-14T16:52:36.199Z,15.80
2019-04-14T16:55:23.378Z,15.70
2019-04-14T16:58:25.841Z,15.80
2019-04-14T17:01:13.035Z,15.80
2019-04-14T17:03:57.998Z,15.80
2019-04-14T17:06:43.292Z,15.80
2019-04-14T17:09:28.363Z,15.80
2019-04-14T17:12:13.469Z,15.80
2019-04-14T17:15:00.634Z,15.80
2019-04-14T17:18:05.808Z,15.80
2019-04-14T17:20:59.104Z,15.80
2019-04-14T17:23:57.971Z,15.80
2019-04-14T17:26:46.268Z,15.80
2019-04-14T17:29:38.912Z,15.80
2019-04-14T17:32:29.090Z,15.70
2019-04-14T17:35:31.405Z,15.70
2019-04-14T17:38:21.655Z,15.60
2019-04-14T17:41:15.243Z,15.70
2019-04-14T17:44:05.990Z,15.70
2019-04-14T17:47:08.226Z,15.70
2019-04-14T17:50:13.207Z,15.70
2019-04-14T17:53:00.021Z,15.70
2019-04-14T17:55:50.058Z,15.70
2019-04-14T17:58:38.049Z,15.70
2019-04-14T18:01:25.303Z,15.70
2019-04-14T18:04:24.620Z,15.70
2019-04-14T18:07:11.833Z,15.70
2019-04-14T18:10:01.318Z,15.70
2019-04-14T18:12:54.051Z,15.70
2019-04-14T18:15:44.244Z,15.70
2019-04-14T18:18:31.204Z,15.70
2019-04-14T18:21:16.094Z,15.70
2019-04-14T18:24:02.673Z,15.70
2019-04-14T18:26:47.680Z,15.70
2019-04-14T18:29:34.933Z,15.70
2019-04-14T18:32:27.917Z,15.70
2019-04-14T18:35:15.118Z,15.70
2019-04-14T18:38:02.330Z,15.70
2019-04-14T18:40:54.981Z,15.70
2019-04-14T18:43:43.156Z,15.70
2019-04-14T18:46:33.136Z,15.60
2019-04-14T18:49:26.052Z,15.60
2019-04-14T18:52:13.340Z,15.70
2019-04-14T18:55:17.586Z,15.70
2019-04-14T18:58:21.403Z,15.80
2019-04-14T19:01:08.991Z,15.80
2019-04-14T19:03:54.317Z,15.70
2019-04-14T19:06:39.532Z,15.70
2019-04-14T19:09:24.779Z,15.70
2019-04-14T19:12:20.472Z,15.60
2019-04-14T19:15:13.750Z,15.60
2019-04-14T19:18:02.031Z,15.60
2019-04-14T19:20:49.096Z,15.60
2019-04-14T19:23:34.397Z,15.60
2019-04-14T19:26:19.033Z,15.60
2019-04-14T19:29:04.184Z,15.60
2019-04-14T19:31:49.518Z,15.60
2019-04-14T19:34:35.102Z,15.60
2019-04-14T19:37:20.356Z,15.60
2019-04-14T19:40:05.646Z,15.60
2019-04-14T19:42:50.502Z,15.60
2019-04-14T19:45:35.736Z,15.60
2019-04-14T19:48:21.205Z,15.60
2019-04-14T19:51:06.364Z,15.50
2019-04-14T19:53:51.556Z,15.50
2019-04-14T19:56:36.711Z,15.40
2019-04-14T19:59:21.654Z,15.40
2019-04-14T20:02:07.059Z,15.50
2019-04-14T20:04:52.057Z,15.50
2019-04-14T20:07:38.482Z,15.40
2019-04-14T20:10:23.537Z,15.40
2019-04-14T20:13:09.875Z,15.40
2019-04-14T20:15:58.703Z,15.50
2019-04-14T20:18:46.229Z,15.60
2019-04-14T20:21:42.246Z,15.50
2019-04-14T20:24:35.495Z,15.50
2019-04-14T20:27:22.491Z,15.50
2019-04-14T20:30:12.395Z,15.50
2019-04-14T20:32:57.767Z,15.40
2019-04-14T20:35:43.007Z,15.40
2019-04-14T20:38:27.783Z,15.40
2019-04-14T20:41:12.604Z,15.40
2019-04-14T20:43:57.986Z,15.50
2019-04-14T20:46:42.913Z,15.50
2019-04-14T20:49:27.623Z,15.50
2019-04-14T20:52:12.804Z,15.40
2019-04-14T20:54:57.704Z,15.50
2019-04-14T20:57:42.587Z,15.50
2019-04-14T21:00:28.199Z,15.60
2019-04-14T21:03:20.918Z,15.50
2019-04-14T21:06:08.253Z,15.50
2019-04-14T21:08:56.970Z,15.50
2019-04-14T21:11:58.940Z,15.50
2019-04-14T21:14:58.087Z,15.50
2019-04-14T21:18:03.044Z,15.40
2019-04-14T21:20:55.851Z,15.40
2019-04-14T21:23:45.823Z,15.40
2019-04-14T21:26:32.810Z,15.40
2019-04-14T21:29:19.676Z,15.40
2019-04-14T21:32:15.642Z,15.40
2019-04-14T21:35:05.542Z,15.30
2019-04-14T21:38:01.755Z,15.30
2019-04-14T21:41:05.001Z,15.30
2019-04-14T21:43:50.120Z,15.30
2019-04-14T21:46:35.534Z,15.20
2019-04-14T21:49:20.287Z,15.20
2019-04-14T21:52:07.527Z,15.20
2019-04-14T21:54:52.746Z,15.20
2019-04-14T21:57:51.658Z,15.30
2019-04-14T22:01:11.685Z,15.30
2019-04-14T22:04:07.644Z,15.20
2019-04-14T22:07:00.827Z,15.20
2019-04-14T22:09:46.007Z,15.20
2019-04-14T22:12:31.233Z,15.20
2019-04-14T22:15:16.778Z,15.20
2019-04-14T22:18:01.597Z,15.30
2019-04-14T22:20:46.676Z,15.30
2019-04-14T22:23:33.134Z,15.20
2019-04-14T22:26:26.089Z,15.30
2019-04-14T22:29:05.174Z,15.30
2019-04-14T22:31:50.571Z,15.30
2019-04-14T22:34:35.875Z,15.30
2019-04-14T22:37:20.758Z,15.20
2019-04-14T22:40:06.101Z,15.20
2019-04-14T22:42:51.590Z,15.30
2019-04-14T22:45:36.741Z,15.30
2019-04-14T22:48:21.641Z,15.20
2019-04-14T22:51:06.752Z,15.10
2019-04-14T22:53:51.795Z,15.00
2019-04-14T22:56:39.419Z,15.10
2019-04-14T22:59:23.677Z,15.10
2019-04-14T23:02:10.898Z,15.20
2019-04-14T23:05:16.363Z,15.10
2019-04-14T23:08:20.062Z,15.10
2019-04-14T23:11:13.325Z,15.10
2019-04-14T23:14:12.312Z,15.00
2019-04-14T23:16:59.464Z,15.10
2019-04-14T23:19:49.078Z,15.10
2019-04-14T23:22:45.428Z,15.10
2019-04-14T23:25:31.517Z,15.00
2019-04-14T23:28:16.584Z,15.10
2019-04-14T23:31:02.198Z,15.10
2019-04-14T23:33:47.303Z,15.10
2019-04-14T23:36:34.030Z,15.00
2019-04-14T23:39:18.956Z,15.00
2019-04-14T23:42:04.425Z,15.00
2019-04-14T23:44:49.823Z,15.00
2019-04-14T23:47:35.083Z,14.90
2019-04-14T23:50:20.049Z,14.90
2019-04-14T23:53:04.988Z,15.00
2019-04-14T23:55:50.825Z,15.10
2019-04-14T23:58:36.025Z,15.10
